sensor_id;sensor_type;location;lat;lon;timestamp;P1;durP1;ratioP1;P2;durP2;ratioP2
68858;SDS011;55864;49.238;8.092;2022-12-07T00:01:25;12.50;;;4.90;;
68858;SDS011;55864;49.238;8.092;2022-12-07T00:03:27;12.57;;;5.10;;
68858;SDS011;55864;49.238;8.092;2022-12-07T00:05:29;10.87;;;5.03;;
68858;SDS011;55864;49.238;8.092;2022-12-07T00:07:29;10.20;;;4.63;;
68858;SDS011;55864;49.238;8.092;2022-12-07T00:09:30;9.50;;;4.47;;
68858;SDS011;55864;49.238;8.092;2022-12-07T00:11:30;9.83;;;4.43;;
68858;SDS011;55864;49.238;8.092;2022-12-07T00:13:31;9.73;;;4.40;;
68858;SDS011;55864;49.238;8.092;2022-12-07T00:15:33;10.50;;;4.47;;
68858;SDS011;55864;49.238;8.092;2022-12-07T00:17:35;10.63;;;4.50;;
68858;SDS011;55864;49.238;8.092;2022-12-07T00:19:35;9.60;;;4.00;;
68858;SDS011;55864;49.238;8.092;2022-12-07T00:21:36;9.00;;;4.20;;
68858;SDS011;55864;49.238;8.092;2022-12-07T00:23:36;8.53;;;3.47;;
68858;SDS011;55864;49.238;8.092;2022-12-07T00:25:37;8.50;;;4.17;;
68858;SDS011;55864;49.238;8.092;2022-12-07T00:27:38;10.07;;;4.03;;
68858;SDS011;55864;49.238;8.092;2022-12-07T00:29:38;11.17;;;4.00;;
68858;SDS011;55864;49.238;8.092;2022-12-07T00:31:39;8.13;;;3.77;;
68858;SDS011;55864;49.238;8.092;2022-12-07T00:33:41;8.93;;;4.00;;
68858;SDS011;55864;49.238;8.092;2022-12-07T00:35:41;9.13;;;3.87;;
68858;SDS011;55864;49.238;8.092;2022-12-07T00:37:42;13.53;;;5.60;;
68858;SDS011;55864;49.238;8.092;2022-12-07T00:39:42;12.40;;;5.53;;
68858;SDS011;55864;49.238;8.092;2022-12-07T00:41:43;26.27;;;9.50;;
68858;SDS011;55864;49.238;8.092;2022-12-07T00:43:44;17.00;;;6.80;;
68858;SDS011;55864;49.238;8.092;2022-12-07T00:45:45;18.93;;;7.90;;
68858;SDS011;55864;49.238;8.092;2022-12-07T00:47:46;15.87;;;6.40;;
68858;SDS011;55864;49.238;8.092;2022-12-07T00:49:47;11.50;;;4.97;;
68858;SDS011;55864;49.238;8.092;2022-12-07T00:51:48;12.23;;;5.13;;
68858;SDS011;55864;49.238;8.092;2022-12-07T00:53:49;10.40;;;4.83;;
68858;SDS011;55864;49.238;8.092;2022-12-07T00:55:50;12.57;;;5.60;;
68858;SDS011;55864;49.238;8.092;2022-12-07T00:57:50;11.23;;;5.50;;
68858;SDS011;55864;49.238;8.092;2022-12-07T00:59:51;9.50;;;4.47;;
68858;SDS011;55864;49.238;8.092;2022-12-07T01:01:51;12.83;;;5.57;;
68858;SDS011;55864;49.238;8.092;2022-12-07T01:03:52;10.13;;;4.67;;
68858;SDS011;55864;49.238;8.092;2022-12-07T01:05:54;10.83;;;4.70;;
68858;SDS011;55864;49.238;8.092;2022-12-07T01:07:55;12.25;;;4.93;;
68858;SDS011;55864;49.238;8.092;2022-12-07T01:09:56;10.30;;;4.80;;
68858;SDS011;55864;49.238;8.092;2022-12-07T01:11:56;11.20;;;4.73;;
68858;SDS011;55864;49.238;8.092;2022-12-07T01:13:57;10.20;;;4.33;;
68858;SDS011;55864;49.238;8.092;2022-12-07T01:16:00;10.87;;;4.57;;
68858;SDS011;55864;49.238;8.092;2022-12-07T01:18:01;12.53;;;4.53;;
68858;SDS011;55864;49.238;8.092;2022-12-07T01:20:02;10.00;;;4.67;;
68858;SDS011;55864;49.238;8.092;2022-12-07T01:22:05;10.73;;;4.50;;
68858;SDS011;55864;49.238;8.092;2022-12-07T01:24:06;8.80;;;4.10;;
68858;SDS011;55864;49.238;8.092;2022-12-07T01:28:11;13.17;;;5.87;;
68858;SDS011;55864;49.238;8.092;2022-12-07T01:30:12;53.77;;;18.03;;
68858;SDS011;55864;49.238;8.092;2022-12-07T01:32:13;47.87;;;15.87;;
68858;SDS011;55864;49.238;8.092;2022-12-07T01:34:14;22.37;;;8.50;;
68858;SDS011;55864;49.238;8.092;2022-12-07T01:36:16;18.93;;;7.43;;
68858;SDS011;55864;49.238;8.092;2022-12-07T01:38:19;23.33;;;8.10;;
68858;SDS011;55864;49.238;8.092;2022-12-07T01:40:20;23.33;;;9.07;;
68858;SDS011;55864;49.238;8.092;2022-12-07T01:42:20;20.87;;;7.23;;
68858;SDS011;55864;49.238;8.092;2022-12-07T01:44:22;21.97;;;7.23;;
68858;SDS011;55864;49.238;8.092;2022-12-07T01:46:24;26.35;;;8.85;;
68858;SDS011;55864;49.238;8.092;2022-12-07T01:48:25;18.13;;;6.53;;
68858;SDS011;55864;49.238;8.092;2022-12-07T01:50:28;20.10;;;7.27;;
68858;SDS011;55864;49.238;8.092;2022-12-07T01:52:30;18.93;;;7.13;;
68858;SDS011;55864;49.238;8.092;2022-12-07T01:54:34;13.03;;;4.97;;
68858;SDS011;55864;49.238;8.092;2022-12-07T01:56:36;12.95;;;4.97;;
68858;SDS011;55864;49.238;8.092;2022-12-07T01:58:39;17.87;;;5.93;;
68858;SDS011;55864;49.238;8.092;2022-12-07T02:00:40;23.83;;;10.30;;
68858;SDS011;55864;49.238;8.092;2022-12-07T02:02:41;16.63;;;7.10;;
68858;SDS011;55864;49.238;8.092;2022-12-07T02:04:46;10.23;;;4.60;;
68858;SDS011;55864;49.238;8.092;2022-12-07T02:06:47;9.30;;;4.30;;
68858;SDS011;55864;49.238;8.092;2022-12-07T02:08:47;8.83;;;3.87;;
68858;SDS011;55864;49.238;8.092;2022-12-07T02:10:50;10.00;;;4.40;;
68858;SDS011;55864;49.238;8.092;2022-12-07T02:12:51;9.17;;;3.80;;
68858;SDS011;55864;49.238;8.092;2022-12-07T02:14:55;8.23;;;3.80;;
68858;SDS011;55864;49.238;8.092;2022-12-07T02:17:00;8.77;;;3.90;;
68858;SDS011;55864;49.238;8.092;2022-12-07T02:19:20;10.90;;;4.37;;
68858;SDS011;55864;49.238;8.092;2022-12-07T02:21:38;13.30;;;5.27;;
68858;SDS011;55864;49.238;8.092;2022-12-07T02:28:52;11.03;;;4.00;;
68858;SDS011;55864;49.238;8.092;2022-12-07T02:31:08;8.57;;;4.10;;
68858;SDS011;55864;49.238;8.092;2022-12-07T02:33:14;10.17;;;4.17;;
68858;SDS011;55864;49.238;8.092;2022-12-07T02:35:20;8.97;;;3.97;;
68858;SDS011;55864;49.238;8.092;2022-12-07T02:37:27;10.63;;;4.20;;
68858;SDS011;55864;49.238;8.092;2022-12-07T02:39:37;8.93;;;3.87;;
68858;SDS011;55864;49.238;8.092;2022-12-07T02:41:43;8.60;;;3.83;;
68858;SDS011;55864;49.238;8.092;2022-12-07T02:43:47;8.60;;;3.93;;
68858;SDS011;55864;49.238;8.092;2022-12-07T02:45:54;12.50;;;4.10;;
68858;SDS011;55864;49.238;8.092;2022-12-07T02:47:58;8.17;;;3.83;;
68858;SDS011;55864;49.238;8.092;2022-12-07T02:50:02;10.30;;;4.67;;
68858;SDS011;55864;49.238;8.092;2022-12-07T02:52:03;10.60;;;4.65;;
68858;SDS011;55864;49.238;8.092;2022-12-07T02:54:07;8.97;;;4.20;;
68858;SDS011;55864;49.238;8.092;2022-12-07T02:56:13;9.63;;;4.43;;
68858;SDS011;55864;49.238;8.092;2022-12-07T02:58:28;9.77;;;4.45;;
68858;SDS011;55864;49.238;8.092;2022-12-07T03:00:39;10.93;;;4.63;;
68858;SDS011;55864;49.238;8.092;2022-12-07T03:02:48;9.70;;;4.83;;
68858;SDS011;55864;49.238;8.092;2022-12-07T03:04:56;10.27;;;4.43;;
68858;SDS011;55864;49.238;8.092;2022-12-07T03:07:10;9.40;;;4.77;;
68858;SDS011;55864;49.238;8.092;2022-12-07T03:09:20;10.90;;;4.80;;
68858;SDS011;55864;49.238;8.092;2022-12-07T03:11:29;14.00;;;4.63;;
68858;SDS011;55864;49.238;8.092;2022-12-07T03:13:37;12.20;;;5.47;;
68858;SDS011;55864;49.238;8.092;2022-12-07T03:15:43;10.63;;;4.70;;
68858;SDS011;55864;49.238;8.092;2022-12-07T03:17:51;9.90;;;4.80;;
68858;SDS011;55864;49.238;8.092;2022-12-07T03:19:59;12.20;;;4.67;;
68858;SDS011;55864;49.238;8.092;2022-12-07T03:22:02;22.13;;;6.93;;
68858;SDS011;55864;49.238;8.092;2022-12-07T03:26:09;10.40;;;4.57;;
68858;SDS011;55864;49.238;8.092;2022-12-07T03:28:12;9.80;;;4.20;;
68858;SDS011;55864;49.238;8.092;2022-12-07T03:30:17;9.77;;;4.17;;
68858;SDS011;55864;49.238;8.092;2022-12-07T03:32:19;18.75;;;6.43;;
68858;SDS011;55864;49.238;8.092;2022-12-07T03:34:26;14.57;;;5.63;;
68858;SDS011;55864;49.238;8.092;2022-12-07T03:36:32;12.30;;;4.50;;
68858;SDS011;55864;49.238;8.092;2022-12-07T03:38:36;13.63;;;4.77;;
68858;SDS011;55864;49.238;8.092;2022-12-07T03:40:42;16.67;;;5.07;;
68858;SDS011;55864;49.238;8.092;2022-12-07T03:42:47;59.50;;;13.10;;
68858;SDS011;55864;49.238;8.092;2022-12-07T03:44:50;20.27;;;5.97;;
68858;SDS011;55864;49.238;8.092;2022-12-07T03:46:52;25.50;;;6.90;;
68858;SDS011;55864;49.238;8.092;2022-12-07T03:49:00;40.67;;;10.47;;
68858;SDS011;55864;49.238;8.092;2022-12-07T03:51:11;128.43;;;29.20;;
68858;SDS011;55864;49.238;8.092;2022-12-07T03:53:18;68.57;;;15.87;;
68858;SDS011;55864;49.238;8.092;2022-12-07T03:55:23;58.57;;;13.53;;
68858;SDS011;55864;49.238;8.092;2022-12-07T03:57:27;77.43;;;16.93;;
68858;SDS011;55864;49.238;8.092;2022-12-07T03:59:30;220.75;;;46.70;;
68858;SDS011;55864;49.238;8.092;2022-12-07T04:01:31;92.77;;;19.93;;
68858;SDS011;55864;49.238;8.092;2022-12-07T04:03:31;77.40;;;17.60;;
68858;SDS011;55864;49.238;8.092;2022-12-07T04:05:32;77.53;;;18.43;;
68858;SDS011;55864;49.238;8.092;2022-12-07T04:07:34;55.47;;;14.07;;
68858;SDS011;55864;49.238;8.092;2022-12-07T04:09:35;56.20;;;14.10;;
68858;SDS011;55864;49.238;8.092;2022-12-07T04:11:35;49.90;;;12.27;;
68858;SDS011;55864;49.238;8.092;2022-12-07T04:13:36;47.23;;;12.40;;
68858;SDS011;55864;49.238;8.092;2022-12-07T04:15:36;14.77;;;4.90;;
68858;SDS011;55864;49.238;8.092;2022-12-07T04:17:37;13.87;;;4.30;;
68858;SDS011;55864;49.238;8.092;2022-12-07T04:19:38;22.53;;;6.60;;
68858;SDS011;55864;49.238;8.092;2022-12-07T04:21:38;34.20;;;8.77;;
68858;SDS011;55864;49.238;8.092;2022-12-07T04:23:40;19.67;;;5.23;;
68858;SDS011;55864;49.238;8.092;2022-12-07T04:25:41;11.43;;;4.20;;
68858;SDS011;55864;49.238;8.092;2022-12-07T04:27:41;31.80;;;8.30;;
68858;SDS011;55864;49.238;8.092;2022-12-07T04:29:42;37.10;;;9.93;;
68858;SDS011;55864;49.238;8.092;2022-12-07T04:31:42;63.83;;;16.60;;
68858;SDS011;55864;49.238;8.092;2022-12-07T04:33:43;74.93;;;19.03;;
68858;SDS011;55864;49.238;8.092;2022-12-07T04:35:44;47.83;;;13.27;;
68858;SDS011;55864;49.238;8.092;2022-12-07T04:37:44;38.73;;;10.90;;
68858;SDS011;55864;49.238;8.092;2022-12-07T04:39:46;33.93;;;9.70;;
68858;SDS011;55864;49.238;8.092;2022-12-07T04:41:47;21.50;;;7.53;;
68858;SDS011;55864;49.238;8.092;2022-12-07T04:43:48;20.13;;;6.40;;
68858;SDS011;55864;49.238;8.092;2022-12-07T04:45:48;20.03;;;6.70;;
68858;SDS011;55864;49.238;8.092;2022-12-07T04:47:49;18.43;;;7.23;;
68858;SDS011;55864;49.238;8.092;2022-12-07T04:49:49;16.23;;;5.50;;
68858;SDS011;55864;49.238;8.092;2022-12-07T04:51:50;16.23;;;6.20;;
68858;SDS011;55864;49.238;8.092;2022-12-07T04:53:51;13.87;;;5.33;;
68858;SDS011;55864;49.238;8.092;2022-12-07T04:55:54;18.57;;;6.83;;
68858;SDS011;55864;49.238;8.092;2022-12-07T04:57:54;21.33;;;7.83;;
68858;SDS011;55864;49.238;8.092;2022-12-07T04:59:55;17.47;;;6.40;;
68858;SDS011;55864;49.238;8.092;2022-12-07T05:01:55;18.77;;;7.27;;
68858;SDS011;55864;49.238;8.092;2022-12-07T05:03:56;14.77;;;6.00;;
68858;SDS011;55864;49.238;8.092;2022-12-07T05:05:56;14.00;;;6.27;;
68858;SDS011;55864;49.238;8.092;2022-12-07T05:07:57;13.03;;;5.23;;
68858;SDS011;55864;49.238;8.092;2022-12-07T05:09:57;12.53;;;5.03;;
68858;SDS011;55864;49.238;8.092;2022-12-07T05:11:59;11.93;;;4.63;;
68858;SDS011;55864;49.238;8.092;2022-12-07T05:14:00;10.50;;;4.83;;
68858;SDS011;55864;49.238;8.092;2022-12-07T05:16:01;13.63;;;6.33;;
68858;SDS011;55864;49.238;8.092;2022-12-07T05:18:02;9.17;;;4.00;;
68858;SDS011;55864;49.238;8.092;2022-12-07T05:20:03;11.30;;;4.70;;
68858;SDS011;55864;49.238;8.092;2022-12-07T05:22:04;11.10;;;4.97;;
68858;SDS011;55864;49.238;8.092;2022-12-07T05:24:05;9.50;;;4.03;;
68858;SDS011;55864;49.238;8.092;2022-12-07T05:26:06;10.77;;;5.00;;
68858;SDS011;55864;49.238;8.092;2022-12-07T05:28:08;10.07;;;4.40;;
68858;SDS011;55864;49.238;8.092;2022-12-07T05:30:09;10.37;;;4.73;;
68858;SDS011;55864;49.238;8.092;2022-12-07T05:32:10;11.40;;;4.73;;
68858;SDS011;55864;49.238;8.092;2022-12-07T05:34:11;11.37;;;4.70;;
68858;SDS011;55864;49.238;8.092;2022-12-07T05:36:11;11.07;;;4.60;;
68858;SDS011;55864;49.238;8.092;2022-12-07T05:38:12;8.93;;;3.60;;
68858;SDS011;55864;49.238;8.092;2022-12-07T05:40:13;9.67;;;3.90;;
68858;SDS011;55864;49.238;8.092;2022-12-07T05:42:14;11.40;;;4.20;;
68858;SDS011;55864;49.238;8.092;2022-12-07T05:44:16;8.77;;;3.80;;
68858;SDS011;55864;49.238;8.092;2022-12-07T05:46:16;8.83;;;3.90;;
68858;SDS011;55864;49.238;8.092;2022-12-07T05:48:17;8.53;;;3.80;;
68858;SDS011;55864;49.238;8.092;2022-12-07T05:50:17;10.30;;;4.23;;
68858;SDS011;55864;49.238;8.092;2022-12-07T05:52:18;9.47;;;4.40;;
68858;SDS011;55864;49.238;8.092;2022-12-07T05:54:18;13.33;;;5.30;;
68858;SDS011;55864;49.238;8.092;2022-12-07T05:56:19;11.03;;;4.50;;
68858;SDS011;55864;49.238;8.092;2022-12-07T05:58:19;10.83;;;4.90;;
68858;SDS011;55864;49.238;8.092;2022-12-07T06:00:22;12.07;;;5.07;;
68858;SDS011;55864;49.238;8.092;2022-12-07T06:02:22;9.67;;;4.50;;
68858;SDS011;55864;49.238;8.092;2022-12-07T06:04:23;11.33;;;4.67;;
68858;SDS011;55864;49.238;8.092;2022-12-07T06:06:25;11.17;;;4.97;;
68858;SDS011;55864;49.238;8.092;2022-12-07T06:08:25;13.30;;;5.00;;
68858;SDS011;55864;49.238;8.092;2022-12-07T06:10:26;14.60;;;5.27;;
68858;SDS011;55864;49.238;8.092;2022-12-07T06:12:26;11.47;;;5.30;;
68858;SDS011;55864;49.238;8.092;2022-12-07T06:14:27;12.50;;;4.77;;
68858;SDS011;55864;49.238;8.092;2022-12-07T06:16:29;10.93;;;4.70;;
68858;SDS011;55864;49.238;8.092;2022-12-07T06:18:29;10.37;;;4.60;;
68858;SDS011;55864;49.238;8.092;2022-12-07T06:20:30;10.23;;;4.30;;
68858;SDS011;55864;49.238;8.092;2022-12-07T06:22:30;13.53;;;4.73;;
68858;SDS011;55864;49.238;8.092;2022-12-07T06:24:31;14.77;;;5.10;;
68858;SDS011;55864;49.238;8.092;2022-12-07T06:26:32;11.03;;;4.63;;
68858;SDS011;55864;49.238;8.092;2022-12-07T06:28:32;11.80;;;5.10;;
68858;SDS011;55864;49.238;8.092;2022-12-07T06:30:33;15.60;;;6.63;;
68858;SDS011;55864;49.238;8.092;2022-12-07T06:32:35;12.93;;;5.53;;
68858;SDS011;55864;49.238;8.092;2022-12-07T06:34:37;11.77;;;5.47;;
68858;SDS011;55864;49.238;8.092;2022-12-07T06:36:38;10.47;;;5.13;;
68858;SDS011;55864;49.238;8.092;2022-12-07T06:38:38;11.33;;;4.67;;
68858;SDS011;55864;49.238;8.092;2022-12-07T06:40:39;10.73;;;5.20;;
68858;SDS011;55864;49.238;8.092;2022-12-07T06:42:39;10.93;;;4.90;;
68858;SDS011;55864;49.238;8.092;2022-12-07T06:44:40;11.53;;;4.93;;
68858;SDS011;55864;49.238;8.092;2022-12-07T06:46:40;9.53;;;4.77;;
68858;SDS011;55864;49.238;8.092;2022-12-07T06:48:42;11.93;;;5.47;;
68858;SDS011;55864;49.238;8.092;2022-12-07T06:50:43;12.97;;;5.70;;
68858;SDS011;55864;49.238;8.092;2022-12-07T06:52:44;11.93;;;5.43;;
68858;SDS011;55864;49.238;8.092;2022-12-07T06:54:45;13.27;;;5.90;;
68858;SDS011;55864;49.238;8.092;2022-12-07T06:56:45;12.37;;;6.00;;
68858;SDS011;55864;49.238;8.092;2022-12-07T06:58:46;11.93;;;5.00;;
68858;SDS011;55864;49.238;8.092;2022-12-07T07:00:47;12.57;;;5.70;;
68858;SDS011;55864;49.238;8.092;2022-12-07T07:02:48;13.87;;;6.20;;
68858;SDS011;55864;49.238;8.092;2022-12-07T07:04:50;15.70;;;6.67;;
68858;SDS011;55864;49.238;8.092;2022-12-07T07:06:50;14.77;;;7.07;;
68858;SDS011;55864;49.238;8.092;2022-12-07T07:08:51;14.73;;;6.20;;
68858;SDS011;55864;49.238;8.092;2022-12-07T07:10:51;17.37;;;6.90;;
68858;SDS011;55864;49.238;8.092;2022-12-07T07:12:52;13.57;;;6.23;;
68858;SDS011;55864;49.238;8.092;2022-12-07T07:14:53;14.63;;;5.90;;
68858;SDS011;55864;49.238;8.092;2022-12-07T07:16:53;13.63;;;6.33;;
68858;SDS011;55864;49.238;8.092;2022-12-07T07:18:54;14.77;;;6.53;;
68858;SDS011;55864;49.238;8.092;2022-12-07T07:20:56;17.57;;;7.00;;
68858;SDS011;55864;49.238;8.092;2022-12-07T07:22:56;16.23;;;7.07;;
68858;SDS011;55864;49.238;8.092;2022-12-07T07:24:57;15.57;;;7.20;;
68858;SDS011;55864;49.238;8.092;2022-12-07T07:26:57;25.63;;;10.30;;
68858;SDS011;55864;49.238;8.092;2022-12-07T07:28:58;24.73;;;10.17;;
68858;SDS011;55864;49.238;8.092;2022-12-07T07:30:58;18.60;;;8.30;;
68858;SDS011;55864;49.238;8.092;2022-12-07T07:33:03;21.97;;;9.50;;
68858;SDS011;55864;49.238;8.092;2022-12-07T07:35:04;17.03;;;7.27;;
68858;SDS011;55864;49.238;8.092;2022-12-07T07:37:06;15.33;;;7.00;;
68858;SDS011;55864;49.238;8.092;2022-12-07T07:39:07;15.00;;;6.90;;
68858;SDS011;55864;49.238;8.092;2022-12-07T07:41:07;16.73;;;6.63;;
68858;SDS011;55864;49.238;8.092;2022-12-07T07:43:08;15.47;;;6.67;;
68858;SDS011;55864;49.238;8.092;2022-12-07T07:45:09;12.77;;;6.10;;
68858;SDS011;55864;49.238;8.092;2022-12-07T07:47:10;13.47;;;6.10;;
68858;SDS011;55864;49.238;8.092;2022-12-07T07:49:10;16.33;;;7.57;;
68858;SDS011;55864;49.238;8.092;2022-12-07T07:51:11;16.03;;;6.70;;
68858;SDS011;55864;49.238;8.092;2022-12-07T07:53:13;16.50;;;7.87;;
68858;SDS011;55864;49.238;8.092;2022-12-07T07:55:13;18.53;;;8.40;;
68858;SDS011;55864;49.238;8.092;2022-12-07T07:57:15;17.90;;;7.83;;
68858;SDS011;55864;49.238;8.092;2022-12-07T07:59:16;18.87;;;7.97;;
68858;SDS011;55864;49.238;8.092;2022-12-07T08:01:17;19.10;;;9.67;;
68858;SDS011;55864;49.238;8.092;2022-12-07T08:03:17;17.30;;;7.63;;
68858;SDS011;55864;49.238;8.092;2022-12-07T08:05:18;17.17;;;7.33;;
68858;SDS011;55864;49.238;8.092;2022-12-07T08:07:18;24.80;;;10.10;;
68858;SDS011;55864;49.238;8.092;2022-12-07T08:09:20;17.77;;;8.07;;
68858;SDS011;55864;49.238;8.092;2022-12-07T08:11:21;16.53;;;7.77;;
68858;SDS011;55864;49.238;8.092;2022-12-07T08:13:21;17.40;;;7.90;;
68858;SDS011;55864;49.238;8.092;2022-12-07T08:15:22;25.63;;;9.87;;
68858;SDS011;55864;49.238;8.092;2022-12-07T08:17:22;22.60;;;9.80;;
68858;SDS011;55864;49.238;8.092;2022-12-07T08:19:23;21.13;;;8.67;;
68858;SDS011;55864;49.238;8.092;2022-12-07T08:21:24;19.13;;;8.30;;
68858;SDS011;55864;49.238;8.092;2022-12-07T08:23:24;16.03;;;7.07;;
68858;SDS011;55864;49.238;8.092;2022-12-07T08:25:26;19.63;;;8.00;;
68858;SDS011;55864;49.238;8.092;2022-12-07T08:27:27;18.73;;;7.97;;
68858;SDS011;55864;49.238;8.092;2022-12-07T08:29:28;26.00;;;9.87;;
68858;SDS011;55864;49.238;8.092;2022-12-07T08:31:28;19.07;;;8.27;;
68858;SDS011;55864;49.238;8.092;2022-12-07T08:33:29;18.93;;;8.27;;
68858;SDS011;55864;49.238;8.092;2022-12-07T08:35:32;22.50;;;10.60;;
68858;SDS011;55864;49.238;8.092;2022-12-07T08:37:32;21.85;;;9.00;;
68858;SDS011;55864;49.238;8.092;2022-12-07T08:39:33;21.90;;;8.67;;
68858;SDS011;55864;49.238;8.092;2022-12-07T08:41:35;23.30;;;10.20;;
68858;SDS011;55864;49.238;8.092;2022-12-07T08:43:36;20.23;;;8.60;;
68858;SDS011;55864;49.238;8.092;2022-12-07T08:45:36;20.47;;;8.60;;
68858;SDS011;55864;49.238;8.092;2022-12-07T08:47:42;22.80;;;9.73;;
68858;SDS011;55864;49.238;8.092;2022-12-07T08:49:46;19.17;;;8.53;;
68858;SDS011;55864;49.238;8.092;2022-12-07T08:51:50;23.83;;;9.20;;
68858;SDS011;55864;49.238;8.092;2022-12-07T08:53:51;20.37;;;8.50;;
68858;SDS011;55864;49.238;8.092;2022-12-07T08:55:53;19.13;;;8.50;;
68858;SDS011;55864;49.238;8.092;2022-12-07T08:57:58;19.95;;;8.30;;
68858;SDS011;55864;49.238;8.092;2022-12-07T08:59:59;19.42;;;8.20;;
68858;SDS011;55864;49.238;8.092;2022-12-07T09:02:00;21.33;;;9.70;;
68858;SDS011;55864;49.238;8.092;2022-12-07T09:04:00;22.77;;;9.53;;
68858;SDS011;55864;49.238;8.092;2022-12-07T09:06:01;23.33;;;9.00;;
68858;SDS011;55864;49.238;8.092;2022-12-07T09:08:02;23.70;;;9.40;;
68858;SDS011;55864;49.238;8.092;2022-12-07T09:10:02;21.13;;;9.53;;
68858;SDS011;55864;49.238;8.092;2022-12-07T09:12:04;19.73;;;9.13;;
68858;SDS011;55864;49.238;8.092;2022-12-07T09:14:06;20.93;;;9.40;;
68858;SDS011;55864;49.238;8.092;2022-12-07T09:16:07;22.67;;;9.90;;
68858;SDS011;55864;49.238;8.092;2022-12-07T09:18:07;23.10;;;10.23;;
68858;SDS011;55864;49.238;8.092;2022-12-07T09:20:08;19.47;;;8.87;;
68858;SDS011;55864;49.238;8.092;2022-12-07T09:22:10;21.43;;;9.57;;
68858;SDS011;55864;49.238;8.092;2022-12-07T09:24:11;19.00;;;9.23;;
68858;SDS011;55864;49.238;8.092;2022-12-07T09:26:12;20.43;;;9.50;;
68858;SDS011;55864;49.238;8.092;2022-12-07T09:28:12;20.63;;;8.80;;
68858;SDS011;55864;49.238;8.092;2022-12-07T09:30:14;22.47;;;10.03;;
68858;SDS011;55864;49.238;8.092;2022-12-07T09:32:15;18.30;;;8.27;;
68858;SDS011;55864;49.238;8.092;2022-12-07T09:34:15;20.23;;;8.63;;
68858;SDS011;55864;49.238;8.092;2022-12-07T09:36:16;20.23;;;9.30;;
68858;SDS011;55864;49.238;8.092;2022-12-07T09:38:17;18.97;;;8.37;;
68858;SDS011;55864;49.238;8.092;2022-12-07T09:40:19;19.63;;;8.97;;
68858;SDS011;55864;49.238;8.092;2022-12-07T09:44:28;20.53;;;8.63;;
68858;SDS011;55864;49.238;8.092;2022-12-07T09:46:31;19.73;;;9.07;;
68858;SDS011;55864;49.238;8.092;2022-12-07T09:48:36;33.30;;;10.70;;
68858;SDS011;55864;49.238;8.092;2022-12-07T09:50:38;20.58;;;9.32;;
68858;SDS011;55864;49.238;8.092;2022-12-07T09:52:39;19.20;;;8.57;;
68858;SDS011;55864;49.238;8.092;2022-12-07T09:54:41;18.47;;;8.93;;
68858;SDS011;55864;49.238;8.092;2022-12-07T09:56:46;20.03;;;8.77;;
68858;SDS011;55864;49.238;8.092;2022-12-07T09:58:46;24.87;;;10.23;;
68858;SDS011;55864;49.238;8.092;2022-12-07T10:00:48;21.67;;;9.10;;
68858;SDS011;55864;49.238;8.092;2022-12-07T10:02:52;22.70;;;9.20;;
68858;SDS011;55864;49.238;8.092;2022-12-07T10:04:55;17.50;;;8.30;;
68858;SDS011;55864;49.238;8.092;2022-12-07T10:06:58;21.48;;;10.55;;
68858;SDS011;55864;49.238;8.092;2022-12-07T10:08:58;20.00;;;9.10;;
68858;SDS011;55864;49.238;8.092;2022-12-07T10:11:01;19.43;;;8.43;;
68858;SDS011;55864;49.238;8.092;2022-12-07T10:13:03;18.52;;;8.65;;
68858;SDS011;55864;49.238;8.092;2022-12-07T10:15:05;25.08;;;10.05;;
68858;SDS011;55864;49.238;8.092;2022-12-07T10:19:34;20.23;;;9.07;;
68858;SDS011;55864;49.238;8.092;2022-12-07T10:21:35;19.10;;;8.60;;
68858;SDS011;55864;49.238;8.092;2022-12-07T10:23:37;18.50;;;7.67;;
68858;SDS011;55864;49.238;8.092;2022-12-07T10:25:39;23.33;;;8.70;;
68858;SDS011;55864;49.238;8.092;2022-12-07T10:27:39;20.90;;;9.00;;
68858;SDS011;55864;49.238;8.092;2022-12-07T10:29:40;21.20;;;9.30;;
68858;SDS011;55864;49.238;8.092;2022-12-07T10:31:49;21.37;;;10.07;;
68858;SDS011;55864;49.238;8.092;2022-12-07T10:33:55;19.73;;;8.70;;
68858;SDS011;55864;49.238;8.092;2022-12-07T10:35:59;21.00;;;9.13;;
68858;SDS011;55864;49.238;8.092;2022-12-07T10:38:00;20.00;;;9.00;;
68858;SDS011;55864;49.238;8.092;2022-12-07T10:40:01;29.03;;;11.50;;
68858;SDS011;55864;49.238;8.092;2022-12-07T10:42:03;52.33;;;17.93;;
68858;SDS011;55864;49.238;8.092;2022-12-07T10:44:03;77.57;;;30.83;;
68858;SDS011;55864;49.238;8.092;2022-12-07T10:46:13;56.93;;;20.73;;
68858;SDS011;55864;49.238;8.092;2022-12-07T10:48:42;29.43;;;13.57;;
68858;SDS011;55864;49.238;8.092;2022-12-07T10:50:55;24.97;;;10.87;;
68858;SDS011;55864;49.238;8.092;2022-12-07T10:53:12;29.13;;;12.27;;
68858;SDS011;55864;49.238;8.092;2022-12-07T10:55:29;23.98;;;9.95;;
68858;SDS011;55864;49.238;8.092;2022-12-07T10:57:44;23.45;;;10.13;;
68858;SDS011;55864;49.238;8.092;2022-12-07T10:59:58;22.93;;;9.63;;
68858;SDS011;55864;49.238;8.092;2022-12-07T11:02:06;27.87;;;10.00;;
68858;SDS011;55864;49.238;8.092;2022-12-07T11:04:30;27.13;;;9.97;;
68858;SDS011;55864;49.238;8.092;2022-12-07T11:06:39;27.53;;;10.93;;
68858;SDS011;55864;49.238;8.092;2022-12-07T11:08:54;23.77;;;9.35;;
68858;SDS011;55864;49.238;8.092;2022-12-07T11:11:02;21.57;;;8.43;;
68858;SDS011;55864;49.238;8.092;2022-12-07T11:13:19;18.23;;;8.43;;
68858;SDS011;55864;49.238;8.092;2022-12-07T11:15:26;19.60;;;8.97;;
68858;SDS011;55864;49.238;8.092;2022-12-07T11:17:34;26.13;;;10.30;;
68858;SDS011;55864;49.238;8.092;2022-12-07T11:19:46;23.57;;;9.37;;
68858;SDS011;55864;49.238;8.092;2022-12-07T11:21:57;23.98;;;10.15;;
68858;SDS011;55864;49.238;8.092;2022-12-07T11:24:03;26.43;;;9.77;;
68858;SDS011;55864;49.238;8.092;2022-12-07T11:26:12;23.60;;;9.27;;
68858;SDS011;55864;49.238;8.092;2022-12-07T11:28:21;24.67;;;9.70;;
68858;SDS011;55864;49.238;8.092;2022-12-07T11:30:34;25.23;;;10.70;;
68858;SDS011;55864;49.238;8.092;2022-12-07T11:32:45;21.10;;;9.00;;
68858;SDS011;55864;49.238;8.092;2022-12-07T11:34:58;23.60;;;10.20;;
68858;SDS011;55864;49.238;8.092;2022-12-07T11:37:07;23.17;;;9.50;;
68858;SDS011;55864;49.238;8.092;2022-12-07T11:39:16;22.27;;;9.20;;
68858;SDS011;55864;49.238;8.092;2022-12-07T11:41:28;22.23;;;10.10;;
68858;SDS011;55864;49.238;8.092;2022-12-07T11:43:32;23.50;;;9.57;;
68858;SDS011;55864;49.238;8.092;2022-12-07T11:45:35;20.55;;;9.10;;
68858;SDS011;55864;49.238;8.092;2022-12-07T11:47:41;15.57;;;7.03;;
68858;SDS011;55864;49.238;8.092;2022-12-07T11:49:47;13.47;;;6.17;;
68858;SDS011;55864;49.238;8.092;2022-12-07T11:51:54;15.43;;;7.17;;
68858;SDS011;55864;49.238;8.092;2022-12-07T11:54:01;19.00;;;8.00;;
68858;SDS011;55864;49.238;8.092;2022-12-07T11:56:07;13.47;;;5.93;;
68858;SDS011;55864;49.238;8.092;2022-12-07T11:58:15;14.73;;;6.60;;
68858;SDS011;55864;49.238;8.092;2022-12-07T12:00:23;16.33;;;6.43;;
68858;SDS011;55864;49.238;8.092;2022-12-07T12:02:24;16.97;;;7.30;;
68858;SDS011;55864;49.238;8.092;2022-12-07T12:04:33;20.60;;;8.57;;
68858;SDS011;55864;49.238;8.092;2022-12-07T12:06:44;15.60;;;6.70;;
68858;SDS011;55864;49.238;8.092;2022-12-07T12:08:46;17.47;;;7.03;;
68858;SDS011;55864;49.238;8.092;2022-12-07T12:10:55;14.87;;;6.53;;
68858;SDS011;55864;49.238;8.092;2022-12-07T12:13:08;11.83;;;5.60;;
68858;SDS011;55864;49.238;8.092;2022-12-07T12:15:43;16.43;;;5.67;;
68858;SDS011;55864;49.238;8.092;2022-12-07T12:18:04;16.80;;;6.20;;
68858;SDS011;55864;49.238;8.092;2022-12-07T12:20:16;15.43;;;6.17;;
68858;SDS011;55864;49.238;8.092;2022-12-07T12:22:23;12.20;;;5.73;;
68858;SDS011;55864;49.238;8.092;2022-12-07T12:24:32;14.87;;;6.63;;